createdAt,value
2022-12-12T00:01:43.652Z,10.73
2022-12-12T00:04:10.288Z,11.00
2022-12-12T00:06:37.963Z,9.95
2022-12-12T00:09:04.855Z,10.95
2022-12-12T00:11:31.752Z,11.55
2022-12-12T00:13:58.510Z,10.63
2022-12-12T00:16:25.598Z,10.85
2022-12-12T00:18:52.359Z,11.02
2022-12-12T00:21:22.211Z,10.55
2022-12-12T00:23:48.909Z,10.65
2022-12-12T00:26:20.202Z,11.13
2022-12-12T00:28:47.285Z,11.45
2022-12-12T00:31:14.516Z,11.57
2022-12-12T00:33:41.267Z,10.60
2022-12-12T00:36:08.197Z,10.68
2022-12-12T00:38:34.873Z,11.68
2022-12-12T00:41:02.908Z,11.73
2022-12-12T00:43:29.864Z,10.93
2022-12-12T00:45:58.975Z,11.07
2022-12-12T00:48:26.346Z,11.68
2022-12-12T00:50:53.205Z,10.32
2022-12-12T00:53:19.873Z,10.70
2022-12-12T00:55:46.760Z,10.77
2022-12-12T00:58:13.397Z,10.05
2022-12-12T01:00:44.057Z,10.50
2022-12-12T01:03:10.834Z,9.50
2022-12-12T01:05:37.650Z,10.05
2022-12-12T01:08:04.448Z,10.50
2022-12-12T01:10:31.254Z,9.77
2022-12-12T01:12:57.939Z,10.80
2022-12-12T01:15:24.703Z,10.55
2022-12-12T01:17:51.420Z,9.80
2022-12-12T01:20:21.809Z,10.23
2022-12-12T01:22:49.461Z,10.20
2022-12-12T01:25:17.176Z,9.90
2022-12-12T01:27:45.772Z,10.40
2022-12-12T01:30:15.295Z,9.98
2022-12-12T01:32:42.035Z,9.68
2022-12-12T01:35:09.959Z,10.10
2022-12-12T01:37:39.196Z,9.07
2022-12-12T01:40:08.549Z,8.85
2022-12-12T01:42:35.623Z,9.63
2022-12-12T01:45:03.036Z,8.50
2022-12-12T01:47:29.758Z,8.77
2022-12-12T01:50:04.057Z,9.25
2022-12-12T01:52:38.556Z,10.43
2022-12-12T01:55:07.032Z,11.63
2022-12-12T01:57:38.519Z,11.55
2022-12-12T02:00:07.878Z,11.05
2022-12-12T02:02:34.897Z,11.43
2022-12-12T02:05:04.859Z,10.88
2022-12-12T02:07:31.741Z,10.68
2022-12-12T02:09:58.414Z,10.77
2022-12-12T02:12:25.144Z,11.93
2022-12-12T02:14:52.581Z,12.63
2022-12-12T02:17:22.240Z,12.30
2022-12-12T02:20:05.090Z,12.25
2022-12-12T02:22:47.678Z,11.60
2022-12-12T02:25:36.245Z,12.18
2022-12-12T02:28:21.173Z,12.02
2022-12-12T02:31:18.752Z,11.13
2022-12-12T02:34:00.903Z,11.32
2022-12-12T02:36:36.877Z,11.20
2022-12-12T02:39:14.056Z,10.40
2022-12-12T02:41:49.860Z,11.10
2022-12-12T02:44:36.038Z,11.20
2022-12-12T02:47:23.179Z,10.65
2022-12-12T02:50:08.764Z,10.73
2022-12-12T02:52:36.527Z,10.27
2022-12-12T02:55:04.766Z,10.65
2022-12-12T02:57:31.468Z,9.82
2022-12-12T03:00:00.744Z,8.93
2022-12-12T03:02:40.530Z,9.73
2022-12-12T03:05:32.846Z,9.55
2022-12-12T03:08:33.596Z,8.85
2022-12-12T03:11:07.760Z,8.85
2022-12-12T03:13:46.986Z,9.05
2022-12-12T03:16:28.418Z,9.00
2022-12-12T03:19:00.777Z,9.32
2022-12-12T03:21:39.665Z,8.90
2022-12-12T03:24:12.493Z,8.70
2022-12-12T03:26:46.687Z,8.05
2022-12-12T03:29:15.594Z,8.77
2022-12-12T03:31:45.485Z,7.85
2022-12-12T03:34:23.753Z,8.32
2022-12-12T03:37:04.198Z,8.20
2022-12-12T03:39:35.540Z,8.15
2022-12-12T03:42:29.609Z,8.60
2022-12-12T03:45:05.544Z,7.55
2022-12-12T03:47:37.700Z,7.40
2022-12-12T03:50:11.368Z,7.97
2022-12-12T03:52:43.085Z,6.80
2022-12-12T03:55:21.020Z,7.30
2022-12-12T03:58:00.475Z,7.00
2022-12-12T04:00:29.344Z,6.85
2022-12-12T04:03:05.513Z,5.72
2022-12-12T04:06:28.261Z,5.90
2022-12-12T04:09:16.531Z,5.63
2022-12-12T04:12:15.616Z,5.70
2022-12-12T04:15:00.278Z,5.45
2022-12-12T04:17:40.787Z,6.20
2022-12-12T04:20:41.146Z,6.40
2022-12-12T04:23:38.243Z,6.15
2022-12-12T04:26:25.480Z,6.13
2022-12-12T04:29:18.851Z,6.53
2022-12-12T04:32:10.054Z,5.90
2022-12-12T04:34:47.847Z,7.03
2022-12-12T04:37:18.284Z,7.82
2022-12-12T04:39:46.867Z,7.72
2022-12-12T04:42:16.936Z,6.90
2022-12-12T04:44:45.136Z,7.53
2022-12-12T04:47:13.081Z,6.82
2022-12-12T04:49:40.546Z,7.53
2022-12-12T04:52:09.846Z,7.22
2022-12-12T04:54:58.032Z,7.65
2022-12-12T04:57:29.379Z,7.82
2022-12-12T04:59:56.450Z,7.25
2022-12-12T05:02:33.946Z,7.03
2022-12-12T05:05:32.330Z,6.32
2022-12-12T05:08:05.934Z,7.28
2022-12-12T05:10:32.711Z,7.93
2022-12-12T05:13:00.668Z,7.93
2022-12-12T05:15:28.368Z,7.90
2022-12-12T05:18:05.621Z,7.88
2022-12-12T05:20:32.361Z,7.95
2022-12-12T05:22:59.444Z,7.63
2022-12-12T05:25:26.172Z,7.30
2022-12-12T05:27:52.965Z,8.07
2022-12-12T05:30:19.684Z,7.88
2022-12-12T05:32:46.365Z,8.75
2022-12-12T05:35:13.331Z,8.05
2022-12-12T05:37:40.320Z,29.63
2022-12-12T05:40:10.820Z,41.83
2022-12-12T05:42:37.550Z,29.25
2022-12-12T05:45:05.764Z,18.40
2022-12-12T05:47:32.450Z,12.00
2022-12-12T05:49:59.227Z,11.55
2022-12-12T05:52:26.116Z,18.98
2022-12-12T05:54:52.964Z,17.20
2022-12-12T05:57:19.824Z,18.27
2022-12-12T05:59:46.973Z,12.68
2022-12-12T06:02:14.151Z,9.85
2022-12-12T06:04:41.293Z,9.90
2022-12-12T06:07:08.622Z,10.38
2022-12-12T06:09:36.348Z,10.13
2022-12-12T06:12:03.149Z,11.38
2022-12-12T06:14:29.890Z,11.98
2022-12-12T06:16:56.628Z,11.57
2022-12-12T06:19:23.514Z,15.43
2022-12-12T06:21:50.429Z,9.77
2022-12-12T06:24:17.083Z,8.60
2022-12-12T06:26:43.764Z,10.35
2022-12-12T06:29:10.571Z,9.93
2022-12-12T06:31:37.413Z,10.25
2022-12-12T06:34:04.148Z,9.73
2022-12-12T06:36:30.904Z,9.90
2022-12-12T06:38:59.781Z,10.43
2022-12-12T06:41:29.269Z,11.77
2022-12-12T06:43:56.312Z,12.13
2022-12-12T06:46:25.889Z,9.48
2022-12-12T06:48:53.340Z,9.02
2022-12-12T06:51:22.818Z,8.65
2022-12-12T06:53:49.799Z,8.00
2022-12-12T06:56:19.932Z,9.38
2022-12-12T06:58:47.104Z,7.72
2022-12-12T07:01:15.622Z,8.02
2022-12-12T07:03:42.368Z,8.02
2022-12-12T07:06:09.183Z,17.17
2022-12-12T07:08:36.301Z,14.70
2022-12-12T07:11:05.662Z,11.73
2022-12-12T07:13:32.783Z,8.48
2022-12-12T07:15:59.497Z,7.95
2022-12-12T07:18:26.291Z,7.97
2022-12-12T07:20:53.017Z,8.30
2022-12-12T07:23:20.077Z,6.78
2022-12-12T07:25:46.841Z,7.50
2022-12-12T07:28:14.861Z,7.25
2022-12-12T07:30:44.690Z,7.30
2022-12-12T07:33:12.064Z,7.40
2022-12-12T07:35:38.774Z,6.95
2022-12-12T07:38:05.990Z,8.32
2022-12-12T07:40:33.127Z,7.68
2022-12-12T07:43:00.663Z,7.07
2022-12-12T07:45:28.000Z,6.85
2022-12-12T07:47:55.041Z,6.53
2022-12-12T07:50:22.344Z,5.88
2022-12-12T07:52:49.111Z,6.90
2022-12-12T07:55:16.251Z,6.22
2022-12-12T07:57:42.993Z,6.32
2022-12-12T08:00:10.805Z,5.80
2022-12-12T08:02:37.490Z,6.13
2022-12-12T08:05:04.513Z,5.63
2022-12-12T08:07:31.213Z,5.40
2022-12-12T08:09:57.863Z,5.65
2022-12-12T08:12:24.601Z,5.65
2022-12-12T08:14:51.363Z,5.70
2022-12-12T08:17:18.101Z,4.93
2022-12-12T08:19:44.842Z,5.00
2022-12-12T08:22:11.513Z,5.93
2022-12-12T08:24:38.190Z,5.20
2022-12-12T08:27:05.104Z,4.63
2022-12-12T08:29:32.182Z,4.45
2022-12-12T08:31:58.907Z,4.30
2022-12-12T08:34:26.035Z,4.70
2022-12-12T08:36:54.884Z,4.47
2022-12-12T08:39:21.605Z,3.45
2022-12-12T08:41:49.174Z,3.40
2022-12-12T08:44:18.420Z,3.70
2022-12-12T08:46:45.232Z,3.70
2022-12-12T08:49:12.486Z,3.00
2022-12-12T08:51:40.237Z,2.97
2022-12-12T08:54:08.144Z,3.00
2022-12-12T08:56:34.836Z,2.50
2022-12-12T08:59:01.507Z,2.28
2022-12-12T09:01:28.645Z,5.18
2022-12-12T09:03:57.031Z,4.72
2022-12-12T09:06:24.896Z,7.38
2022-12-12T09:08:51.816Z,8.35
2022-12-12T09:11:19.085Z,8.18
2022-12-12T09:13:45.950Z,6.80
2022-12-12T09:16:12.849Z,7.43
2022-12-12T09:18:47.806Z,7.20
2022-12-12T09:21:15.679Z,6.05
2022-12-12T09:23:42.402Z,6.53
2022-12-12T09:26:09.757Z,6.80
2022-12-12T09:28:36.961Z,6.68
2022-12-12T09:31:06.102Z,6.88
2022-12-12T09:33:33.384Z,6.53
2022-12-12T09:36:01.677Z,7.05
2022-12-12T09:38:28.765Z,6.60
2022-12-12T09:41:05.484Z,7.20
2022-12-12T09:43:36.790Z,5.88
2022-12-12T09:46:03.664Z,6.05
2022-12-12T09:48:36.716Z,6.15
2022-12-12T09:51:03.772Z,3.72
2022-12-12T09:53:30.581Z,4.72
2022-12-12T09:56:25.031Z,4.30
2022-12-12T09:59:07.730Z,5.45
2022-12-12T10:01:53.690Z,4.72
2022-12-12T10:04:27.063Z,3.63
2022-12-12T10:07:10.559Z,4.00
2022-12-12T10:09:44.916Z,3.85
2022-12-12T10:12:16.376Z,3.17
2022-12-12T10:14:48.899Z,4.70
2022-12-12T10:17:32.631Z,4.80
2022-12-12T10:20:15.119Z,5.10
2022-12-12T10:23:14.822Z,6.00
2022-12-12T10:25:56.455Z,8.55
2022-12-12T10:28:30.024Z,10.57
2022-12-12T10:31:25.481Z,9.35
2022-12-12T10:37:19.774Z,8.40
2022-12-12T10:39:55.653Z,7.50
2022-12-12T10:42:41.857Z,7.68
2022-12-12T10:45:17.503Z,5.82
2022-12-12T10:47:44.831Z,6.53
2022-12-12T10:50:13.290Z,6.55
2022-12-12T10:52:40.352Z,6.57
2022-12-12T10:55:19.166Z,6.32
2022-12-12T10:57:46.112Z,4.40
2022-12-12T11:00:18.675Z,4.88
2022-12-12T11:02:45.503Z,5.65
2022-12-12T11:05:17.171Z,6.57
2022-12-12T11:07:49.251Z,7.82
2022-12-12T11:10:34.262Z,9.38
2022-12-12T11:13:15.494Z,9.82
2022-12-12T11:16:00.252Z,10.02
2022-12-12T11:18:27.379Z,10.43
2022-12-12T11:21:11.744Z,9.30
2022-12-12T11:23:41.443Z,8.83
2022-12-12T11:26:17.481Z,6.93
2022-12-12T11:28:47.237Z,9.60
2022-12-12T11:31:17.507Z,9.88
2022-12-12T11:33:50.264Z,10.38
2022-12-12T11:36:19.535Z,10.20
2022-12-12T11:38:51.987Z,9.77
2022-12-12T11:41:19.068Z,9.18
2022-12-12T11:43:48.548Z,9.43
2022-12-12T11:46:15.271Z,8.82
2022-12-12T11:48:54.376Z,9.75
2022-12-12T11:51:47.269Z,9.85
2022-12-12T11:54:16.066Z,9.55
2022-12-12T11:57:15.639Z,8.55
2022-12-12T11:59:54.904Z,8.52
2022-12-12T12:02:46.006Z,8.70
2022-12-12T12:05:42.352Z,8.38
2022-12-12T12:08:39.964Z,7.53
2022-12-12T12:11:20.201Z,8.30
2022-12-12T12:14:02.462Z,7.45
2022-12-12T12:16:50.374Z,7.20
2022-12-12T12:19:41.916Z,7.10
2022-12-12T12:22:39.375Z,7.43
2022-12-12T12:25:25.136Z,7.10
2022-12-12T12:28:37.151Z,7.65
2022-12-12T12:31:16.114Z,7.45
2022-12-12T12:33:57.063Z,7.80
2022-12-12T12:36:28.312Z,7.80
2022-12-12T12:39:16.216Z,6.93
2022-12-12T12:42:11.440Z,6.47
2022-12-12T12:45:05.742Z,6.22
2022-12-12T12:47:52.356Z,6.18
2022-12-12T12:50:34.944Z,6.07
2022-12-12T12:53:08.134Z,6.22
2022-12-12T12:55:51.120Z,6.07
2022-12-12T12:58:24.782Z,6.40
2022-12-12T13:01:08.449Z,6.50
2022-12-12T13:03:55.331Z,6.20
2022-12-12T13:07:04.533Z,6.55
2022-12-12T13:09:46.993Z,6.03
2022-12-12T13:12:34.350Z,6.40
2022-12-12T13:15:18.988Z,7.47
2022-12-12T13:18:01.180Z,8.00
2022-12-12T13:20:29.477Z,7.50
2022-12-12T13:23:12.826Z,7.22
2022-12-12T13:25:57.932Z,7.03
2022-12-12T13:28:38.839Z,6.63
2022-12-12T13:31:36.509Z,7.03
2022-12-12T13:34:10.783Z,6.57
2022-12-12T13:36:41.204Z,6.03
2022-12-12T13:39:23.428Z,5.95
2022-12-12T13:42:07.554Z,5.50
2022-12-12T13:44:49.168Z,5.80
2022-12-12T13:47:22.062Z,7.53
2022-12-12T13:50:10.904Z,8.93
2022-12-12T13:52:42.299Z,10.65
2022-12-12T13:55:12.752Z,10.50
2022-12-12T13:58:05.804Z,10.32
2022-12-12T14:00:37.394Z,11.85
2022-12-12T14:03:15.860Z,11.30
2022-12-12T14:05:50.621Z,9.90
2022-12-12T14:08:18.124Z,11.70
2022-12-12T14:10:59.962Z,11.15
2022-12-12T14:13:45.843Z,11.00
2022-12-12T14:16:25.958Z,12.75
2022-12-12T14:18:55.909Z,12.07
2022-12-12T14:21:46.451Z,12.35
2022-12-12T14:24:35.263Z,11.82
2022-12-12T14:27:07.099Z,13.10
2022-12-12T14:29:34.922Z,12.98
2022-12-12T14:32:13.810Z,13.82
2022-12-12T14:35:09.690Z,12.88
2022-12-12T14:38:13.118Z,13.48
2022-12-12T14:40:45.402Z,14.38
2022-12-12T14:43:23.629Z,14.93
2022-12-12T14:45:50.325Z,15.02
2022-12-12T14:48:24.586Z,14.32
2022-12-12T14:50:53.541Z,15.18
2022-12-12T14:53:27.968Z,15.02
2022-12-12T14:55:58.301Z,14.63
2022-12-12T14:58:28.154Z,15.07
2022-12-12T15:00:58.020Z,14.10
2022-12-12T15:03:29.776Z,16.73
2022-12-12T15:06:29.984Z,15.43
2022-12-12T15:09:06.905Z,15.77
2022-12-12T15:11:33.787Z,12.55
2022-12-12T15:14:01.960Z,15.20
2022-12-12T15:16:48.069Z,15.63
2022-12-12T15:19:26.719Z,14.88
2022-12-12T15:21:53.660Z,15.82
2022-12-12T15:24:23.032Z,14.15
2022-12-12T15:26:52.152Z,15.77
2022-12-12T15:29:22.545Z,14.93
2022-12-12T15:31:52.770Z,14.43
2022-12-12T15:34:32.837Z,13.73
2022-12-12T15:37:17.871Z,12.82
2022-12-12T15:39:45.320Z,12.30
2022-12-12T15:42:13.744Z,11.48
2022-12-12T15:44:42.910Z,13.90
2022-12-12T15:47:13.778Z,16.70
2022-12-12T15:49:42.898Z,15.23
2022-12-12T15:52:20.568Z,17.83
2022-12-12T15:54:55.789Z,15.40
2022-12-12T15:57:29.119Z,14.57
2022-12-12T16:00:02.707Z,14.55
2022-12-12T16:02:34.039Z,16.58
2022-12-12T16:05:08.163Z,14.75
2022-12-12T16:07:37.948Z,14.40
2022-12-12T16:10:10.881Z,15.82
2022-12-12T16:13:31.917Z,18.85
2022-12-12T16:15:58.845Z,21.05
2022-12-12T16:18:25.936Z,32.53
2022-12-12T16:20:54.844Z,21.13
2022-12-12T16:23:32.899Z,13.15
2022-12-12T16:26:00.003Z,12.10
2022-12-12T16:28:29.239Z,12.25
2022-12-12T16:31:04.210Z,12.38
2022-12-12T16:33:39.169Z,12.55
2022-12-12T16:36:14.347Z,11.57
2022-12-12T16:38:42.166Z,15.15
2022-12-12T16:41:14.655Z,13.77
2022-12-12T16:43:42.070Z,11.85
2022-12-12T16:46:19.768Z,13.00
2022-12-12T16:48:46.722Z,12.32
2022-12-12T16:51:42.951Z,11.52
2022-12-12T16:54:14.788Z,11.07
2022-12-12T16:56:41.768Z,14.98
2022-12-12T16:59:08.543Z,14.15
2022-12-12T17:01:38.781Z,11.95
2022-12-12T17:04:07.297Z,24.88
2022-12-12T17:06:34.038Z,21.17
2022-12-12T17:09:00.870Z,24.20
2022-12-12T17:11:27.564Z,29.48
2022-12-12T17:13:54.299Z,24.00
2022-12-12T17:16:27.373Z,34.78
2022-12-12T17:18:54.515Z,26.15
2022-12-12T17:21:21.259Z,36.58
2022-12-12T17:23:47.928Z,27.73
2022-12-12T17:26:14.601Z,27.52
2022-12-12T17:28:41.344Z,22.05
2022-12-12T17:31:08.925Z,24.23
2022-12-12T17:33:45.803Z,22.27
2022-12-12T17:36:16.915Z,20.58
2022-12-12T17:38:43.612Z,20.42
2022-12-12T17:41:10.887Z,19.45
2022-12-12T17:43:38.266Z,17.58
2022-12-12T17:46:07.617Z,17.70
2022-12-12T17:48:35.888Z,17.85
2022-12-12T17:51:06.302Z,19.20
2022-12-12T17:53:38.990Z,19.27
2022-12-12T17:56:10.743Z,19.38
2022-12-12T17:58:39.208Z,21.33
2022-12-12T18:01:14.096Z,19.75
2022-12-12T18:03:41.816Z,19.90
2022-12-12T18:06:08.984Z,18.48
2022-12-12T18:08:36.608Z,18.13
2022-12-12T18:11:10.037Z,23.75
2022-12-12T18:13:38.721Z,19.90
2022-12-12T18:16:06.763Z,27.27
2022-12-12T18:18:34.198Z,33.33
2022-12-12T18:21:05.608Z,25.10
2022-12-12T18:23:33.120Z,24.15
2022-12-12T18:26:11.203Z,21.05
2022-12-12T18:28:38.020Z,19.52
2022-12-12T18:31:05.258Z,17.67
2022-12-12T18:33:32.156Z,19.67
2022-12-12T18:36:08.522Z,18.17
2022-12-12T18:38:36.155Z,18.45
2022-12-12T18:41:03.920Z,17.52
2022-12-12T18:43:31.116Z,16.35
2022-12-12T18:46:08.797Z,16.98
2022-12-12T18:48:38.661Z,17.35
2022-12-12T18:51:10.870Z,17.45
2022-12-12T18:53:39.398Z,18.63
2022-12-12T18:56:07.815Z,17.67
2022-12-12T18:58:35.191Z,16.25
2022-12-12T19:01:20.991Z,17.98
2022-12-12T19:03:52.298Z,18.33
2022-12-12T19:06:24.907Z,17.65
2022-12-12T19:08:52.641Z,17.10
2022-12-12T19:11:19.733Z,16.98
2022-12-12T19:13:47.257Z,17.13
2022-12-12T19:16:16.503Z,23.35
2022-12-12T19:18:43.662Z,18.05
2022-12-12T19:21:13.162Z,17.80
2022-12-12T19:23:40.179Z,18.05
2022-12-12T19:26:15.132Z,16.23
2022-12-12T19:28:42.475Z,15.68
2022-12-12T19:31:14.844Z,20.90
2022-12-12T19:33:43.257Z,18.90
2022-12-12T19:36:15.573Z,19.05
2022-12-12T19:38:42.590Z,17.75
2022-12-12T19:41:10.691Z,21.60
2022-12-12T19:43:37.507Z,20.08
2022-12-12T19:46:16.317Z,28.70
2022-12-12T19:48:44.604Z,21.95
2022-12-12T19:51:16.532Z,24.60
2022-12-12T19:53:45.892Z,27.35
2022-12-12T19:56:14.057Z,21.85
2022-12-12T19:58:41.422Z,20.40
2022-12-12T20:01:14.058Z,19.52
2022-12-12T20:03:41.337Z,17.65
2022-12-12T20:06:10.698Z,16.30
2022-12-12T20:08:38.135Z,16.55
2022-12-12T20:11:10.217Z,17.60
2022-12-12T20:13:37.295Z,17.88
2022-12-12T20:16:05.902Z,15.90
2022-12-12T20:18:33.062Z,15.73
2022-12-12T20:21:03.111Z,16.08
2022-12-12T20:23:31.542Z,16.60
2022-12-12T20:25:58.589Z,15.32
2022-12-12T20:28:25.334Z,15.45
2022-12-12T20:31:03.683Z,15.68
2022-12-12T20:33:30.508Z,15.07
2022-12-12T20:36:01.727Z,15.15
2022-12-12T20:38:33.673Z,14.40
2022-12-12T20:41:00.947Z,14.52
2022-12-12T20:43:28.369Z,13.85
2022-12-12T20:45:55.460Z,13.43
2022-12-12T20:48:22.318Z,11.68
2022-12-12T20:50:49.224Z,12.07
2022-12-12T20:53:15.950Z,11.15
2022-12-12T20:55:42.669Z,10.35
2022-12-12T20:58:09.366Z,11.05
2022-12-12T21:00:38.207Z,11.13
2022-12-12T21:03:04.913Z,10.45
2022-12-12T21:05:31.603Z,10.00
2022-12-12T21:07:58.518Z,10.07
2022-12-12T21:10:25.283Z,8.60
2022-12-12T21:12:51.994Z,9.45
2022-12-12T21:15:19.083Z,12.13
2022-12-12T21:17:45.905Z,10.82
2022-12-12T21:20:12.607Z,9.68
2022-12-12T21:22:39.317Z,8.02
2022-12-12T21:25:06.341Z,7.75
2022-12-12T21:27:33.267Z,7.65
2022-12-12T21:29:59.977Z,7.35
2022-12-12T21:32:26.722Z,5.85
2022-12-12T21:34:53.442Z,6.93
2022-12-12T21:37:20.361Z,6.22
2022-12-12T21:39:47.109Z,6.82
2022-12-12T21:42:13.788Z,5.82
2022-12-12T21:44:45.495Z,6.75
2022-12-12T21:47:12.803Z,5.30
2022-12-12T21:49:39.473Z,7.85
2022-12-12T21:52:09.996Z,5.40
2022-12-12T21:54:36.778Z,5.30
2022-12-12T21:57:04.321Z,5.40
2022-12-12T21:59:31.101Z,5.85
2022-12-12T22:02:00.341Z,5.55
2022-12-12T22:04:27.628Z,5.57
2022-12-12T22:06:54.457Z,8.40
2022-12-12T22:09:21.156Z,7.90
2022-12-12T22:11:50.105Z,6.32
2022-12-12T22:14:19.846Z,5.60
2022-12-12T22:16:46.561Z,5.00
2022-12-12T22:19:14.581Z,9.60
2022-12-12T22:21:41.829Z,6.47
2022-12-12T22:24:09.113Z,5.35
2022-12-12T22:26:38.225Z,6.57
2022-12-12T22:29:07.283Z,5.10
2022-12-12T22:31:37.516Z,5.63
2022-12-12T22:34:18.243Z,5.30
2022-12-12T22:36:46.144Z,5.03
2022-12-12T22:39:24.510Z,5.05
2022-12-12T22:41:51.383Z,6.20
2022-12-12T22:44:19.992Z,5.70
2022-12-12T22:46:48.327Z,5.15
2022-12-12T22:49:17.905Z,5.03
2022-12-12T22:51:44.710Z,4.47
2022-12-12T22:54:11.586Z,4.55
2022-12-12T22:56:39.495Z,5.40
2022-12-12T22:59:07.231Z,4.93
2022-12-12T23:01:34.099Z,6.05
2022-12-12T23:04:01.008Z,5.45
2022-12-12T23:06:30.110Z,7.03
2022-12-12T23:09:05.656Z,5.70
2022-12-12T23:11:33.265Z,5.60
2022-12-12T23:14:02.407Z,5.45
2022-12-12T23:16:30.859Z,5.15
2022-12-12T23:18:58.760Z,5.00
2022-12-12T23:21:26.195Z,5.15
2022-12-12T23:23:53.583Z,5.10
2022-12-12T23:26:23.238Z,4.93
2022-12-12T23:28:50.197Z,4.30
2022-12-12T23:31:20.127Z,5.90
2022-12-12T23:33:47.604Z,5.05
2022-12-12T23:36:15.622Z,4.60
2022-12-12T23:38:42.630Z,4.25
2022-12-12T23:41:12.181Z,5.25
2022-12-12T23:43:40.007Z,5.05
2022-12-12T23:46:08.891Z,5.20
2022-12-12T23:48:35.632Z,5.43
2022-12-12T23:51:02.438Z,5.43
2022-12-12T23:53:32.433Z,5.43
2022-12-12T23:56:03.733Z,5.60
2022-12-12T23:58:30.376Z,5.97
